createdAt,value
2023-06-28T00:00:06.686Z,7.28
2023-06-28T00:02:44.287Z,7.50
2023-06-28T00:05:12.292Z,8.43
2023-06-28T00:07:40.947Z,8.65
2023-06-28T00:10:08.615Z,7.93
2023-06-28T00:15:09.466Z,10.38
2023-06-28T00:17:36.914Z,8.25
2023-06-28T00:20:08.787Z,8.07
2023-06-28T00:22:36.749Z,9.38
2023-06-28T00:27:34.598Z,9.85
2023-06-28T00:32:33.331Z,12.13
2023-06-28T00:37:28.129Z,12.40
2023-06-28T00:39:56.360Z,13.18
2023-06-28T00:42:23.918Z,13.93
2023-06-28T00:44:51.338Z,11.35
2023-06-28T00:47:19.948Z,13.93
2023-06-28T00:49:48.096Z,10.93
2023-06-28T00:52:15.579Z,13.57
2023-06-28T00:54:43.383Z,13.90
2023-06-28T00:57:11.166Z,12.32
2023-06-28T00:59:38.741Z,14.18
2023-06-28T01:02:06.593Z,12.75
2023-06-28T01:04:38.841Z,13.80
2023-06-28T01:07:07.331Z,15.80
2023-06-28T01:09:35.256Z,13.95
2023-06-28T01:12:03.374Z,17.10
2023-06-28T01:14:31.018Z,15.65
2023-06-28T01:16:58.533Z,17.00
2023-06-28T01:19:29.126Z,16.42
2023-06-28T01:22:02.675Z,18.13
2023-06-28T01:24:30.887Z,18.77
2023-06-28T01:29:28.541Z,18.90
2023-06-28T01:31:57.556Z,19.90
2023-06-28T01:34:29.548Z,16.02
2023-06-28T01:37:00.812Z,19.85
2023-06-28T01:39:30.018Z,23.27
2023-06-28T01:42:00.420Z,18.23
2023-06-28T01:44:28.615Z,20.00
2023-06-28T01:46:56.213Z,21.45
2023-06-28T01:49:24.269Z,18.95
2023-06-28T01:51:51.665Z,18.40
2023-06-28T01:54:20.049Z,23.70
2023-06-28T01:56:47.499Z,21.02
2023-06-28T01:59:14.983Z,24.10
2023-06-28T02:01:45.453Z,17.45
2023-06-28T02:04:13.056Z,17.45
2023-06-28T02:06:41.436Z,17.35
2023-06-28T02:09:18.396Z,17.35
2023-06-28T02:11:45.919Z,15.82
2023-06-28T02:16:45.310Z,16.88
2023-06-28T02:19:19.999Z,16.02
2023-06-28T02:21:49.083Z,17.08
2023-06-28T02:24:19.890Z,14.82
2023-06-28T02:26:47.938Z,14.73
2023-06-28T02:29:17.882Z,15.55
2023-06-28T02:31:45.581Z,13.05
2023-06-28T02:34:20.734Z,15.60
2023-06-28T02:36:48.216Z,12.82
2023-06-28T02:39:18.225Z,11.30
2023-06-28T02:41:45.717Z,11.10
2023-06-28T02:44:13.235Z,7.63
2023-06-28T02:49:14.821Z,8.80
2023-06-28T02:51:42.289Z,11.18
2023-06-28T02:54:31.462Z,7.78
2023-06-28T02:56:59.263Z,10.27
2023-06-28T02:59:45.584Z,7.70
2023-06-28T03:02:16.238Z,10.15
2023-06-28T03:04:43.833Z,8.38
2023-06-28T03:07:19.084Z,7.35
2023-06-28T03:09:47.123Z,7.13
2023-06-28T03:12:14.528Z,5.82
2023-06-28T03:14:45.065Z,7.72
2023-06-28T03:17:13.644Z,6.25
2023-06-28T03:19:41.388Z,7.57
2023-06-28T03:22:08.819Z,6.60
2023-06-28T03:24:36.721Z,7.72
2023-06-28T03:27:14.683Z,8.93
2023-06-28T03:29:53.013Z,4.95
2023-06-28T03:32:26.345Z,3.92
2023-06-28T03:37:35.991Z,6.95
2023-06-28T03:40:03.575Z,5.03
2023-06-28T03:42:32.052Z,6.05
2023-06-28T03:44:59.372Z,6.45
2023-06-28T03:47:27.004Z,6.63
2023-06-28T03:49:54.790Z,9.18
2023-06-28T03:52:22.170Z,3.33
2023-06-28T03:54:49.661Z,10.63
2023-06-28T03:57:20.186Z,6.95
2023-06-28T03:59:47.567Z,10.45
2023-06-28T04:02:15.433Z,7.35
2023-06-28T04:04:42.855Z,5.65
2023-06-28T04:07:10.266Z,8.90
2023-06-28T04:09:37.706Z,5.35
2023-06-28T04:12:06.861Z,4.72
2023-06-28T04:14:35.750Z,4.95
2023-06-28T04:17:04.478Z,5.80
2023-06-28T04:19:31.830Z,5.18
2023-06-28T04:21:59.445Z,4.82
2023-06-28T04:24:26.737Z,5.63
2023-06-28T04:26:54.110Z,4.57
2023-06-28T04:29:23.047Z,9.32
2023-06-28T04:31:50.898Z,3.88
2023-06-28T04:34:18.427Z,5.38
2023-06-28T04:36:47.732Z,4.07
2023-06-28T04:39:15.594Z,5.13
2023-06-28T04:41:42.895Z,4.47
2023-06-28T04:44:11.284Z,6.22
2023-06-28T04:46:38.736Z,3.28
2023-06-28T04:49:11.748Z,6.72
2023-06-28T04:51:39.135Z,4.32
2023-06-28T04:54:06.590Z,4.97
2023-06-28T04:59:03.590Z,3.47
2023-06-28T05:01:31.166Z,9.30
2023-06-28T05:06:26.358Z,7.07
2023-06-28T05:08:53.750Z,5.72
2023-06-28T05:13:49.246Z,8.25
2023-06-28T05:16:16.705Z,8.52
2023-06-28T05:18:44.083Z,6.30
2023-06-28T05:21:11.464Z,6.55
2023-06-28T05:23:38.963Z,11.00
2023-06-28T05:28:33.842Z,3.92
2023-06-28T05:31:02.500Z,9.93
2023-06-28T05:33:29.890Z,5.35
2023-06-28T05:35:57.343Z,5.90
2023-06-28T05:38:24.650Z,5.03
2023-06-28T05:40:58.752Z,4.60
2023-06-28T05:43:27.451Z,4.40
2023-06-28T05:45:56.213Z,3.70
2023-06-28T05:48:23.592Z,5.80
2023-06-28T05:50:51.286Z,4.70
2023-06-28T05:53:18.981Z,5.57
2023-06-28T05:55:46.356Z,7.90
2023-06-28T05:58:13.800Z,10.30
2023-06-28T06:00:41.535Z,4.55
2023-06-28T06:03:09.303Z,3.53
2023-06-28T06:05:38.864Z,2.42
2023-06-28T06:08:07.321Z,5.25
2023-06-28T06:10:35.024Z,1.75
2023-06-28T06:13:02.415Z,2.30
2023-06-28T06:15:29.737Z,5.43
2023-06-28T06:17:57.192Z,4.00
2023-06-28T06:22:59.573Z,2.20
2023-06-28T06:25:27.025Z,5.00
2023-06-28T06:27:54.401Z,4.95
2023-06-28T06:30:22.129Z,6.82
2023-06-28T06:32:50.465Z,2.85
2023-06-28T06:35:17.825Z,2.55
2023-06-28T06:37:47.308Z,4.95
2023-06-28T06:40:14.833Z,3.72
2023-06-28T06:42:42.502Z,5.38
2023-06-28T06:45:12.065Z,5.57
2023-06-28T06:47:40.819Z,9.57
2023-06-28T06:50:21.291Z,6.15
2023-06-28T06:52:49.087Z,4.03
2023-06-28T06:55:17.231Z,5.90
2023-06-28T06:57:46.247Z,7.15
2023-06-28T07:00:14.881Z,7.60
2023-06-28T07:02:42.461Z,3.92
2023-06-28T07:05:17.097Z,5.13
2023-06-28T07:07:47.344Z,10.23
2023-06-28T07:10:15.335Z,3.47
2023-06-28T07:12:45.927Z,5.20
2023-06-28T07:15:14.960Z,2.10
2023-06-28T07:17:42.802Z,2.97
2023-06-28T07:20:11.094Z,2.97
2023-06-28T07:22:38.586Z,2.85
2023-06-28T07:27:50.356Z,3.53
2023-06-28T07:30:18.273Z,2.70
2023-06-28T07:32:45.688Z,4.78
2023-06-28T07:37:41.519Z,4.22
2023-06-28T07:40:10.134Z,4.72
2023-06-28T07:42:39.388Z,2.22
2023-06-28T07:45:07.197Z,4.70
2023-06-28T07:47:34.731Z,2.72
2023-06-28T07:50:02.946Z,7.30
2023-06-28T07:52:33.091Z,4.78
2023-06-28T07:55:15.123Z,5.15
2023-06-28T07:57:42.818Z,3.33
2023-06-28T08:00:12.241Z,5.65
2023-06-28T08:02:40.533Z,3.50
2023-06-28T08:05:09.525Z,2.70
2023-06-28T08:07:36.965Z,4.85
2023-06-28T08:10:04.764Z,2.25
2023-06-28T08:12:32.339Z,4.65
2023-06-28T08:15:00.128Z,7.43
2023-06-28T08:17:29.857Z,3.75
2023-06-28T08:19:57.512Z,2.42
2023-06-28T08:22:26.652Z,1.65
2023-06-28T08:25:03.061Z,3.50
2023-06-28T08:27:33.136Z,3.92
2023-06-28T08:30:00.639Z,4.28
2023-06-28T08:32:30.544Z,2.30
2023-06-28T08:34:58.194Z,3.28
2023-06-28T08:37:27.011Z,2.78
2023-06-28T08:39:55.155Z,1.30
2023-06-28T08:42:23.641Z,4.78
2023-06-28T08:44:55.783Z,2.00
2023-06-28T08:47:23.569Z,2.60
2023-06-28T08:49:51.814Z,2.97
2023-06-28T08:52:20.994Z,3.35
2023-06-28T08:54:49.586Z,4.88
2023-06-28T08:57:18.645Z,1.42
2023-06-28T08:59:46.863Z,2.03
2023-06-28T09:02:19.771Z,1.95
2023-06-28T09:04:50.262Z,1.60
2023-06-28T09:07:20.586Z,1.63
2023-06-28T09:09:53.732Z,3.00
2023-06-28T09:12:22.506Z,2.17
2023-06-28T09:14:51.536Z,1.75
2023-06-28T09:17:21.812Z,4.13
2023-06-28T09:19:51.622Z,4.60
2023-06-28T09:22:19.368Z,2.58
2023-06-28T09:24:50.356Z,1.48
2023-06-28T09:27:18.701Z,1.63
2023-06-28T09:30:10.116Z,2.80
2023-06-28T09:32:43.709Z,3.78
2023-06-28T09:35:14.458Z,2.90
2023-06-28T09:37:41.992Z,5.25
2023-06-28T09:40:09.945Z,1.35
2023-06-28T09:42:48.963Z,1.48
2023-06-28T09:45:32.042Z,2.45
2023-06-28T09:48:01.645Z,4.25
2023-06-28T09:50:47.721Z,2.13
2023-06-28T09:53:17.849Z,1.10
2023-06-28T09:55:46.647Z,2.97
2023-06-28T09:58:16.496Z,1.50
2023-06-28T10:00:46.912Z,1.60
2023-06-28T10:03:16.182Z,4.95
2023-06-28T10:05:45.688Z,1.42
2023-06-28T10:08:17.991Z,1.13
2023-06-28T10:10:49.053Z,6.47
2023-06-28T10:13:23.695Z,1.90
2023-06-28T10:16:06.838Z,3.65
2023-06-28T10:18:34.461Z,2.25
2023-06-28T10:21:08.185Z,3.08
2023-06-28T10:23:39.697Z,2.35
2023-06-28T10:26:07.788Z,7.32
2023-06-28T10:28:36.158Z,1.50
2023-06-28T10:31:06.875Z,1.58
2023-06-28T10:33:38.152Z,1.42
2023-06-28T10:36:09.370Z,1.73
2023-06-28T10:41:15.438Z,4.57
2023-06-28T10:43:43.438Z,2.75
2023-06-28T10:46:27.078Z,1.13
2023-06-28T10:48:57.853Z,2.55
2023-06-28T10:51:31.206Z,2.47
2023-06-28T10:54:23.535Z,6.43
2023-06-28T10:56:52.692Z,1.73
2023-06-28T10:59:21.943Z,0.95
2023-06-28T11:01:57.396Z,2.33
2023-06-28T11:04:27.702Z,1.08
2023-06-28T11:07:04.753Z,2.85
2023-06-28T11:09:33.914Z,3.60
2023-06-28T11:12:01.909Z,1.67
2023-06-28T11:14:32.293Z,3.25
2023-06-28T11:17:23.762Z,4.47
2023-06-28T11:19:51.204Z,2.38
2023-06-28T11:22:19.989Z,6.35
2023-06-28T11:24:50.877Z,2.88
2023-06-28T11:27:23.806Z,4.30
2023-06-28T11:29:59.827Z,2.30
2023-06-28T11:32:35.207Z,2.33
2023-06-28T11:35:03.707Z,1.77
2023-06-28T11:37:32.401Z,1.63
2023-06-28T11:40:01.141Z,4.20
2023-06-28T11:42:32.763Z,2.08
2023-06-28T11:45:00.081Z,2.03
2023-06-28T11:47:29.308Z,3.67
2023-06-28T11:49:57.102Z,1.95
2023-06-28T11:52:25.721Z,9.35
2023-06-28T11:54:54.773Z,4.38
2023-06-28T11:57:23.598Z,4.50
2023-06-28T11:59:53.729Z,1.88
2023-06-28T12:02:25.258Z,2.60
2023-06-28T12:05:02.060Z,3.22
2023-06-28T12:07:31.864Z,1.65
2023-06-28T12:10:01.092Z,3.10
2023-06-28T12:12:36.255Z,4.20
2023-06-28T12:15:04.887Z,3.03
2023-06-28T12:17:40.150Z,1.83
2023-06-28T12:20:13.629Z,1.40
2023-06-28T12:22:46.231Z,1.88
2023-06-28T12:25:14.660Z,2.17
2023-06-28T12:27:42.221Z,2.00
2023-06-28T12:30:11.678Z,1.33
2023-06-28T12:32:49.315Z,4.18
2023-06-28T12:35:27.508Z,1.48
2023-06-28T12:37:59.154Z,3.05
2023-06-28T12:40:30.485Z,3.13
2023-06-28T12:43:13.816Z,1.27
2023-06-28T12:45:51.457Z,3.22
2023-06-28T12:48:20.364Z,3.95
2023-06-28T12:50:48.889Z,2.70
2023-06-28T12:53:16.750Z,1.70
2023-06-28T12:55:44.857Z,6.65
2023-06-28T12:58:13.076Z,1.88
2023-06-28T13:00:59.588Z,5.55
2023-06-28T13:03:27.070Z,3.40
2023-06-28T13:05:54.708Z,5.05
2023-06-28T13:08:22.214Z,4.25
2023-06-28T13:10:49.612Z,4.07
2023-06-28T13:13:17.121Z,4.97
2023-06-28T13:15:44.784Z,4.72
2023-06-28T13:18:12.406Z,2.60
2023-06-28T13:20:39.892Z,1.70
2023-06-28T13:23:07.387Z,1.30
2023-06-28T13:25:34.884Z,2.08
2023-06-28T13:28:02.371Z,2.13
2023-06-28T13:30:31.631Z,2.05
2023-06-28T13:35:40.516Z,3.20
2023-06-28T13:38:09.234Z,1.75
2023-06-28T13:40:56.664Z,2.42
2023-06-28T13:43:24.097Z,12.10
2023-06-28T13:48:35.396Z,1.75
2023-06-28T13:53:30.027Z,5.97
2023-06-28T13:56:00.125Z,4.50
2023-06-28T13:58:29.348Z,4.22
2023-06-28T14:00:58.432Z,2.50
2023-06-28T14:03:26.074Z,2.35
2023-06-28T14:05:54.311Z,2.58
2023-06-28T14:08:22.142Z,2.47
2023-06-28T14:10:49.681Z,2.78
2023-06-28T14:13:17.364Z,3.70
2023-06-28T14:15:45.291Z,5.05
2023-06-28T14:18:14.396Z,2.72
2023-06-28T14:20:42.226Z,4.05
2023-06-28T14:23:09.649Z,2.17
2023-06-28T14:25:37.112Z,2.38
2023-06-28T14:28:04.860Z,5.80
2023-06-28T14:30:32.298Z,2.13
2023-06-28T14:32:59.775Z,3.17
2023-06-28T14:35:27.259Z,2.38
2023-06-28T14:37:54.860Z,4.30
2023-06-28T14:40:22.332Z,4.70
2023-06-28T14:42:49.824Z,4.07
2023-06-28T14:45:17.281Z,2.70
2023-06-28T14:47:44.830Z,7.93
2023-06-28T14:50:13.354Z,3.38
2023-06-28T14:52:40.861Z,4.03
2023-06-28T14:55:08.448Z,3.15
2023-06-28T14:57:35.913Z,3.03
2023-06-28T15:02:33.498Z,2.28
2023-06-28T15:05:01.079Z,3.00
2023-06-28T15:07:28.537Z,3.05
2023-06-28T15:09:55.980Z,2.72
2023-06-28T15:12:23.356Z,1.65
2023-06-28T15:14:50.704Z,3.15
2023-06-28T15:17:18.188Z,3.55
2023-06-28T15:19:45.545Z,1.60
2023-06-28T15:24:40.056Z,2.58
2023-06-28T15:29:35.294Z,4.80
2023-06-28T15:34:30.001Z,2.58
2023-06-28T15:39:38.440Z,2.78
2023-06-28T15:42:08.050Z,3.50
2023-06-28T15:44:35.500Z,3.60
2023-06-28T15:49:30.120Z,4.43
2023-06-28T15:51:57.775Z,2.22
2023-06-28T15:54:25.029Z,5.03
2023-06-28T15:59:23.564Z,5.55
2023-06-28T16:01:51.527Z,4.80
2023-06-28T16:04:18.970Z,4.95
2023-06-28T16:06:46.473Z,8.80
2023-06-28T16:09:13.806Z,12.93
2023-06-28T16:14:09.657Z,12.38
2023-06-28T16:16:38.063Z,8.50
2023-06-28T16:19:09.280Z,12.40
2023-06-28T16:24:04.212Z,9.80
2023-06-28T16:26:31.803Z,6.47
2023-06-28T16:28:59.299Z,7.25
2023-06-28T16:33:54.261Z,8.85
2023-06-28T16:36:21.842Z,9.63
2023-06-28T16:38:49.157Z,7.80
2023-06-28T16:43:44.312Z,7.53
2023-06-28T16:48:40.134Z,6.00
2023-06-28T16:51:10.791Z,14.30
2023-06-28T16:56:19.552Z,10.98
2023-06-28T16:58:46.938Z,12.18
2023-06-28T17:03:53.199Z,6.32
2023-06-28T17:06:20.799Z,9.95
2023-06-28T17:11:17.216Z,13.88
2023-06-28T17:13:45.572Z,10.38
2023-06-28T17:16:13.171Z,11.75
2023-06-28T17:18:40.863Z,9.75
2023-06-28T17:21:08.805Z,11.02
2023-06-28T17:23:36.273Z,11.85
2023-06-28T17:26:04.398Z,13.45
2023-06-28T17:28:32.777Z,11.65
2023-06-28T17:33:43.796Z,13.95
2023-06-28T17:38:38.333Z,16.50
2023-06-28T17:41:08.230Z,9.63
2023-06-28T17:43:35.769Z,14.10
2023-06-28T17:46:04.748Z,14.70
2023-06-28T17:48:32.591Z,7.63
2023-06-28T17:51:00.104Z,10.00
2023-06-28T17:53:27.585Z,9.35
2023-06-28T17:55:54.918Z,17.10
2023-06-28T17:58:22.270Z,10.15
2023-06-28T18:00:49.658Z,10.98
2023-06-28T18:03:16.994Z,11.65
2023-06-28T18:05:44.394Z,7.97
2023-06-28T18:10:39.371Z,14.73
2023-06-28T18:13:06.828Z,11.73
2023-06-28T18:20:43.637Z,9.10
2023-06-28T18:23:11.332Z,12.75
2023-06-28T18:28:22.639Z,8.77
2023-06-28T18:30:50.552Z,13.40
2023-06-28T18:35:59.431Z,7.95
2023-06-28T18:40:54.856Z,5.53
2023-06-28T18:43:22.481Z,8.07
2023-06-28T18:48:33.595Z,12.27
2023-06-28T18:51:01.069Z,11.70
2023-06-28T18:53:28.510Z,9.85
2023-06-28T18:58:37.856Z,6.93
2023-06-28T19:04:10.878Z,9.27
2023-06-28T19:06:38.403Z,6.15
2023-06-28T19:11:33.160Z,7.03
2023-06-28T19:14:02.276Z,5.88
2023-06-28T19:16:29.748Z,11.07
2023-06-28T19:19:00.201Z,8.63
2023-06-28T19:21:27.696Z,7.65
2023-06-28T19:23:55.913Z,6.20
2023-06-28T19:26:23.264Z,10.40
2023-06-28T19:28:50.587Z,6.38
2023-06-28T19:31:18.100Z,7.45
2023-06-28T19:36:12.763Z,7.07
2023-06-28T19:38:40.709Z,10.57
2023-06-28T19:41:08.281Z,9.30
2023-06-28T19:43:35.733Z,7.45
2023-06-28T19:46:05.584Z,7.28
2023-06-28T19:48:42.829Z,10.73
2023-06-28T19:51:10.167Z,8.07
2023-06-28T19:54:05.214Z,10.25
2023-06-28T19:56:32.648Z,6.22
2023-06-28T19:59:00.058Z,6.70
2023-06-28T20:01:27.601Z,5.18
2023-06-28T20:06:22.495Z,10.48
2023-06-28T20:08:49.897Z,8.13
2023-06-28T20:11:17.573Z,11.35
2023-06-28T20:16:12.027Z,8.98
2023-06-28T20:18:39.409Z,10.75
2023-06-28T20:21:06.809Z,13.45
2023-06-28T20:23:34.206Z,7.45
2023-06-28T20:26:01.614Z,9.77
2023-06-28T20:28:28.976Z,10.48
2023-06-28T20:30:56.849Z,13.25
2023-06-28T20:33:33.011Z,11.43
2023-06-28T20:38:44.588Z,10.82
2023-06-28T20:41:12.030Z,13.80
2023-06-28T20:43:41.842Z,15.52
2023-06-28T20:46:09.433Z,15.50
2023-06-28T20:48:36.882Z,15.45
2023-06-28T20:51:04.913Z,13.15
2023-06-28T20:53:32.964Z,15.18
2023-06-28T20:56:00.387Z,19.33
2023-06-28T20:58:27.763Z,14.27
2023-06-28T21:00:55.269Z,14.45
2023-06-28T21:03:22.697Z,15.13
2023-06-28T21:05:50.052Z,13.35
2023-06-28T21:08:17.646Z,27.33
2023-06-28T21:11:06.738Z,16.10
2023-06-28T21:13:34.191Z,18.02
2023-06-28T21:16:01.532Z,15.93
2023-06-28T21:21:09.994Z,16.67
2023-06-28T21:23:40.908Z,12.88
2023-06-28T21:26:08.752Z,15.65
2023-06-28T21:28:36.193Z,15.60
2023-06-28T21:33:30.856Z,15.57
2023-06-28T21:35:58.250Z,12.27
2023-06-28T21:38:30.192Z,15.95
2023-06-28T21:41:40.717Z,9.02
2023-06-28T21:44:45.419Z,10.23
2023-06-28T21:47:12.759Z,11.95
2023-06-28T21:49:40.170Z,15.32
2023-06-28T21:52:08.051Z,13.98
2023-06-28T21:54:35.532Z,14.85
2023-06-28T21:57:03.457Z,15.20
2023-06-28T21:59:31.850Z,10.35
2023-06-28T22:01:59.591Z,21.60
2023-06-28T22:04:28.061Z,15.35
2023-06-28T22:07:05.834Z,17.90
2023-06-28T22:09:34.574Z,11.63
2023-06-28T22:12:05.855Z,17.20
2023-06-28T22:14:33.872Z,15.52
2023-06-28T22:17:02.068Z,14.95
2023-06-28T22:19:29.723Z,12.13
2023-06-28T22:21:57.084Z,12.13
2023-06-28T22:24:24.408Z,14.45
2023-06-28T22:26:53.232Z,13.63
2023-06-28T22:29:20.645Z,12.73
2023-06-28T22:31:59.815Z,14.93
2023-06-28T22:34:27.834Z,12.57
2023-06-28T22:36:55.313Z,13.13
2023-06-28T22:39:22.831Z,11.00
2023-06-28T22:41:50.288Z,10.98
2023-06-28T22:44:17.708Z,17.20
2023-06-28T22:46:45.621Z,18.65
2023-06-28T22:49:14.144Z,14.23
2023-06-28T22:51:42.188Z,10.85
2023-06-28T22:54:10.744Z,13.07
2023-06-28T22:56:38.269Z,12.75
2023-06-28T22:59:24.059Z,10.55
2023-06-28T23:01:51.879Z,10.15
2023-06-28T23:04:19.400Z,15.65
2023-06-28T23:06:46.696Z,12.43
2023-06-28T23:09:14.364Z,13.43
2023-06-28T23:11:41.903Z,11.77
2023-06-28T23:14:20.068Z,11.38
2023-06-28T23:16:47.497Z,11.40
2023-06-28T23:20:11.623Z,14.90
2023-06-28T23:23:19.296Z,10.23
2023-06-28T23:25:47.543Z,13.90
2023-06-28T23:31:04.196Z,10.70
2023-06-28T23:33:31.558Z,14.57
2023-06-28T23:36:02.293Z,11.13
2023-06-28T23:38:29.980Z,8.65
2023-06-28T23:40:57.369Z,15.48
2023-06-28T23:43:24.700Z,11.90
2023-06-28T23:45:57.221Z,10.15
2023-06-28T23:48:25.457Z,11.13
2023-06-28T23:50:53.305Z,11.95
2023-06-28T23:53:22.105Z,12.73
2023-06-28T23:55:53.430Z,8.77
2023-06-28T23:58:20.748Z,20.08
